sensor_id;sensor_type;location;lat;lon;timestamp;P1;durP1;ratioP1;P2;durP2;ratioP2
4424;SDS011;2225;53.568;13.266;2023-07-31T00:00:04;9.40;;;1.83;;
4424;SDS011;2225;53.568;13.266;2023-07-31T00:02:32;8.47;;;2.27;;
4424;SDS011;2225;53.568;13.266;2023-07-31T00:04:59;8.43;;;1.93;;
4424;SDS011;2225;53.568;13.266;2023-07-31T00:07:27;8.27;;;1.83;;
4424;SDS011;2225;53.568;13.266;2023-07-31T00:09:54;8.10;;;1.73;;
4424;SDS011;2225;53.568;13.266;2023-07-31T00:12:22;16.40;;;2.80;;
4424;SDS011;2225;53.568;13.266;2023-07-31T00:14:50;7.30;;;1.77;;
4424;SDS011;2225;53.568;13.266;2023-07-31T00:17:17;9.27;;;2.50;;
4424;SDS011;2225;53.568;13.266;2023-07-31T00:19:44;23.13;;;1.73;;
4424;SDS011;2225;53.568;13.266;2023-07-31T00:22:12;16.10;;;3.00;;
4424;SDS011;2225;53.568;13.266;2023-07-31T00:24:39;9.90;;;2.13;;
4424;SDS011;2225;53.568;13.266;2023-07-31T00:27:06;8.13;;;1.93;;
4424;SDS011;2225;53.568;13.266;2023-07-31T00:29:33;7.53;;;2.00;;
4424;SDS011;2225;53.568;13.266;2023-07-31T00:32:00;11.77;;;2.70;;
4424;SDS011;2225;53.568;13.266;2023-07-31T00:34:27;7.90;;;2.27;;
4424;SDS011;2225;53.568;13.266;2023-07-31T00:36:54;7.97;;;2.43;;
4424;SDS011;2225;53.568;13.266;2023-07-31T00:39:21;9.40;;;2.43;;
4424;SDS011;2225;53.568;13.266;2023-07-31T00:41:48;12.60;;;2.40;;
4424;SDS011;2225;53.568;13.266;2023-07-31T00:44:16;19.73;;;2.87;;
4424;SDS011;2225;53.568;13.266;2023-07-31T00:46:43;9.47;;;2.73;;
4424;SDS011;2225;53.568;13.266;2023-07-31T00:49:10;9.63;;;2.47;;
4424;SDS011;2225;53.568;13.266;2023-07-31T00:51:38;11.33;;;2.53;;
4424;SDS011;2225;53.568;13.266;2023-07-31T00:54:05;11.90;;;2.63;;
4424;SDS011;2225;53.568;13.266;2023-07-31T00:56:33;11.80;;;3.00;;
4424;SDS011;2225;53.568;13.266;2023-07-31T00:59:00;8.87;;;2.70;;
4424;SDS011;2225;53.568;13.266;2023-07-31T01:01:27;8.27;;;2.77;;
4424;SDS011;2225;53.568;13.266;2023-07-31T01:03:55;11.80;;;3.00;;
4424;SDS011;2225;53.568;13.266;2023-07-31T01:06:29;8.90;;;2.50;;
4424;SDS011;2225;53.568;13.266;2023-07-31T01:12:03;8.80;;;2.80;;
4424;SDS011;2225;53.568;13.266;2023-07-31T01:14:33;11.07;;;2.70;;
4424;SDS011;2225;53.568;13.266;2023-07-31T01:17:00;10.63;;;3.00;;
4424;SDS011;2225;53.568;13.266;2023-07-31T01:19:27;9.73;;;3.03;;
4424;SDS011;2225;53.568;13.266;2023-07-31T01:25:26;10.17;;;3.33;;
4424;SDS011;2225;53.568;13.266;2023-07-31T01:31:10;9.33;;;2.70;;
4424;SDS011;2225;53.568;13.266;2023-07-31T01:33:44;8.30;;;2.60;;
4424;SDS011;2225;53.568;13.266;2023-07-31T01:36:12;9.60;;;3.27;;
4424;SDS011;2225;53.568;13.266;2023-07-31T01:38:39;8.93;;;2.50;;
4424;SDS011;2225;53.568;13.266;2023-07-31T01:41:07;8.60;;;2.30;;
4424;SDS011;2225;53.568;13.266;2023-07-31T01:43:34;9.20;;;2.30;;
4424;SDS011;2225;53.568;13.266;2023-07-31T01:46:01;11.40;;;2.30;;
4424;SDS011;2225;53.568;13.266;2023-07-31T01:48:28;11.03;;;3.40;;
4424;SDS011;2225;53.568;13.266;2023-07-31T01:50:55;10.17;;;3.03;;
4424;SDS011;2225;53.568;13.266;2023-07-31T01:53:22;13.20;;;3.40;;
4424;SDS011;2225;53.568;13.266;2023-07-31T01:55:49;8.37;;;2.77;;
4424;SDS011;2225;53.568;13.266;2023-07-31T01:58:16;11.40;;;3.03;;
4424;SDS011;2225;53.568;13.266;2023-07-31T02:00:43;10.90;;;3.10;;
4424;SDS011;2225;53.568;13.266;2023-07-31T02:03:10;13.73;;;2.90;;
4424;SDS011;2225;53.568;13.266;2023-07-31T02:05:43;11.40;;;2.80;;
4424;SDS011;2225;53.568;13.266;2023-07-31T02:08:14;9.60;;;2.60;;
4424;SDS011;2225;53.568;13.266;2023-07-31T02:10:42;11.60;;;2.73;;
4424;SDS011;2225;53.568;13.266;2023-07-31T02:13:09;9.10;;;2.93;;
4424;SDS011;2225;53.568;13.266;2023-07-31T02:15:37;10.00;;;2.87;;
4424;SDS011;2225;53.568;13.266;2023-07-31T02:18:04;7.60;;;2.03;;
4424;SDS011;2225;53.568;13.266;2023-07-31T02:20:33;10.20;;;2.60;;
4424;SDS011;2225;53.568;13.266;2023-07-31T02:23:01;9.60;;;3.30;;
4424;SDS011;2225;53.568;13.266;2023-07-31T02:25:28;11.17;;;2.47;;
4424;SDS011;2225;53.568;13.266;2023-07-31T02:27:55;10.43;;;2.70;;
4424;SDS011;2225;53.568;13.266;2023-07-31T02:30:22;8.93;;;2.63;;
4424;SDS011;2225;53.568;13.266;2023-07-31T02:32:49;12.37;;;2.80;;
4424;SDS011;2225;53.568;13.266;2023-07-31T02:35:16;12.23;;;2.73;;
4424;SDS011;2225;53.568;13.266;2023-07-31T02:37:45;14.53;;;2.87;;
4424;SDS011;2225;53.568;13.266;2023-07-31T02:40:12;10.57;;;2.63;;
4424;SDS011;2225;53.568;13.266;2023-07-31T02:42:39;9.60;;;2.87;;
4424;SDS011;2225;53.568;13.266;2023-07-31T02:45:06;11.93;;;3.10;;
4424;SDS011;2225;53.568;13.266;2023-07-31T02:47:34;9.47;;;2.87;;
4424;SDS011;2225;53.568;13.266;2023-07-31T02:50:04;9.37;;;2.77;;
4424;SDS011;2225;53.568;13.266;2023-07-31T02:52:32;10.90;;;2.83;;
4424;SDS011;2225;53.568;13.266;2023-07-31T02:54:59;12.20;;;2.73;;
4424;SDS011;2225;53.568;13.266;2023-07-31T02:57:26;10.10;;;3.40;;
4424;SDS011;2225;53.568;13.266;2023-07-31T02:59:52;10.40;;;3.00;;
4424;SDS011;2225;53.568;13.266;2023-07-31T03:02:19;9.47;;;2.47;;
4424;SDS011;2225;53.568;13.266;2023-07-31T03:04:48;10.67;;;2.27;;
4424;SDS011;2225;53.568;13.266;2023-07-31T03:07:15;10.53;;;2.63;;
4424;SDS011;2225;53.568;13.266;2023-07-31T03:09:42;8.80;;;2.23;;
4424;SDS011;2225;53.568;13.266;2023-07-31T03:12:09;10.17;;;2.93;;
4424;SDS011;2225;53.568;13.266;2023-07-31T03:14:36;9.10;;;2.90;;
4424;SDS011;2225;53.568;13.266;2023-07-31T03:17:03;10.33;;;2.73;;
4424;SDS011;2225;53.568;13.266;2023-07-31T03:19:30;11.33;;;2.70;;
4424;SDS011;2225;53.568;13.266;2023-07-31T03:21:58;11.03;;;2.70;;
4424;SDS011;2225;53.568;13.266;2023-07-31T03:24:28;9.23;;;2.70;;
4424;SDS011;2225;53.568;13.266;2023-07-31T03:26:55;14.77;;;3.60;;
4424;SDS011;2225;53.568;13.266;2023-07-31T03:29:22;10.67;;;2.87;;
4424;SDS011;2225;53.568;13.266;2023-07-31T03:31:51;9.53;;;2.30;;
4424;SDS011;2225;53.568;13.266;2023-07-31T03:34:18;11.47;;;2.90;;
4424;SDS011;2225;53.568;13.266;2023-07-31T03:36:45;11.67;;;2.60;;
4424;SDS011;2225;53.568;13.266;2023-07-31T03:39:12;11.77;;;3.23;;
4424;SDS011;2225;53.568;13.266;2023-07-31T03:41:39;11.23;;;2.50;;
4424;SDS011;2225;53.568;13.266;2023-07-31T03:44:06;9.50;;;2.77;;
4424;SDS011;2225;53.568;13.266;2023-07-31T03:46:33;20.13;;;2.87;;
4424;SDS011;2225;53.568;13.266;2023-07-31T03:49:02;8.10;;;2.50;;
4424;SDS011;2225;53.568;13.266;2023-07-31T03:51:29;13.27;;;3.33;;
4424;SDS011;2225;53.568;13.266;2023-07-31T03:53:56;13.87;;;4.23;;
4424;SDS011;2225;53.568;13.266;2023-07-31T03:56:23;11.03;;;2.80;;
4424;SDS011;2225;53.568;13.266;2023-07-31T03:58:50;13.17;;;2.53;;
4424;SDS011;2225;53.568;13.266;2023-07-31T04:01:17;11.80;;;2.80;;
4424;SDS011;2225;53.568;13.266;2023-07-31T04:03:46;11.97;;;3.10;;
4424;SDS011;2225;53.568;13.266;2023-07-31T04:06:13;8.30;;;2.50;;
4424;SDS011;2225;53.568;13.266;2023-07-31T04:08:44;10.93;;;2.90;;
4424;SDS011;2225;53.568;13.266;2023-07-31T04:11:14;12.73;;;3.30;;
4424;SDS011;2225;53.568;13.266;2023-07-31T04:13:40;13.53;;;3.13;;
4424;SDS011;2225;53.568;13.266;2023-07-31T04:16:07;11.33;;;3.23;;
4424;SDS011;2225;53.568;13.266;2023-07-31T04:18:34;9.97;;;2.87;;
4424;SDS011;2225;53.568;13.266;2023-07-31T04:21:01;15.90;;;3.47;;
4424;SDS011;2225;53.568;13.266;2023-07-31T04:23:28;10.20;;;2.87;;
4424;SDS011;2225;53.568;13.266;2023-07-31T04:25:56;13.37;;;3.10;;
4424;SDS011;2225;53.568;13.266;2023-07-31T04:28:23;9.93;;;2.70;;
4424;SDS011;2225;53.568;13.266;2023-07-31T04:30:52;9.67;;;3.10;;
4424;SDS011;2225;53.568;13.266;2023-07-31T04:33:20;8.87;;;2.80;;
4424;SDS011;2225;53.568;13.266;2023-07-31T04:35:50;16.63;;;3.23;;
4424;SDS011;2225;53.568;13.266;2023-07-31T04:38:19;10.03;;;2.70;;
4424;SDS011;2225;53.568;13.266;2023-07-31T04:40:47;15.17;;;2.97;;
4424;SDS011;2225;53.568;13.266;2023-07-31T04:43:14;15.33;;;3.60;;
4424;SDS011;2225;53.568;13.266;2023-07-31T04:45:47;11.03;;;3.23;;
4424;SDS011;2225;53.568;13.266;2023-07-31T04:48:14;12.77;;;3.40;;
4424;SDS011;2225;53.568;13.266;2023-07-31T04:50:41;9.80;;;2.83;;
4424;SDS011;2225;53.568;13.266;2023-07-31T04:53:08;9.33;;;3.20;;
4424;SDS011;2225;53.568;13.266;2023-07-31T04:55:35;10.03;;;3.13;;
4424;SDS011;2225;53.568;13.266;2023-07-31T04:58:02;16.67;;;3.17;;
4424;SDS011;2225;53.568;13.266;2023-07-31T05:00:29;13.00;;;2.83;;
4424;SDS011;2225;53.568;13.266;2023-07-31T05:02:56;10.20;;;3.10;;
4424;SDS011;2225;53.568;13.266;2023-07-31T05:05:23;12.07;;;3.97;;
4424;SDS011;2225;53.568;13.266;2023-07-31T05:07:50;14.37;;;3.07;;
4424;SDS011;2225;53.568;13.266;2023-07-31T05:10:17;10.20;;;3.23;;
4424;SDS011;2225;53.568;13.266;2023-07-31T05:12:44;15.40;;;3.20;;
4424;SDS011;2225;53.568;13.266;2023-07-31T05:15:11;14.83;;;3.50;;
4424;SDS011;2225;53.568;13.266;2023-07-31T05:17:38;19.10;;;3.10;;
4424;SDS011;2225;53.568;13.266;2023-07-31T05:20:05;10.93;;;2.90;;
4424;SDS011;2225;53.568;13.266;2023-07-31T05:22:33;13.63;;;3.37;;
4424;SDS011;2225;53.568;13.266;2023-07-31T05:25:00;15.50;;;2.90;;
4424;SDS011;2225;53.568;13.266;2023-07-31T05:27:27;8.17;;;2.70;;
4424;SDS011;2225;53.568;13.266;2023-07-31T05:29:54;11.93;;;3.33;;
4424;SDS011;2225;53.568;13.266;2023-07-31T05:32:21;9.10;;;2.27;;
4424;SDS011;2225;53.568;13.266;2023-07-31T05:34:50;9.20;;;2.43;;
4424;SDS011;2225;53.568;13.266;2023-07-31T05:37:20;11.27;;;2.97;;
4424;SDS011;2225;53.568;13.266;2023-07-31T05:39:48;8.53;;;2.80;;
4424;SDS011;2225;53.568;13.266;2023-07-31T05:42:15;9.90;;;2.90;;
4424;SDS011;2225;53.568;13.266;2023-07-31T05:44:42;12.53;;;2.73;;
4424;SDS011;2225;53.568;13.266;2023-07-31T05:47:09;8.40;;;3.03;;
4424;SDS011;2225;53.568;13.266;2023-07-31T05:49:37;12.23;;;3.47;;
4424;SDS011;2225;53.568;13.266;2023-07-31T05:52:04;13.03;;;3.60;;
4424;SDS011;2225;53.568;13.266;2023-07-31T05:54:31;15.43;;;3.50;;
4424;SDS011;2225;53.568;13.266;2023-07-31T05:56:59;10.90;;;2.80;;
4424;SDS011;2225;53.568;13.266;2023-07-31T05:59:26;13.30;;;3.10;;
4424;SDS011;2225;53.568;13.266;2023-07-31T06:01:53;10.90;;;2.93;;
4424;SDS011;2225;53.568;13.266;2023-07-31T06:04:20;9.50;;;2.53;;
4424;SDS011;2225;53.568;13.266;2023-07-31T06:06:50;11.20;;;2.40;;
4424;SDS011;2225;53.568;13.266;2023-07-31T06:09:18;9.90;;;2.80;;
4424;SDS011;2225;53.568;13.266;2023-07-31T06:11:46;8.67;;;2.40;;
4424;SDS011;2225;53.568;13.266;2023-07-31T06:14:13;8.97;;;2.73;;
4424;SDS011;2225;53.568;13.266;2023-07-31T06:16:40;11.60;;;2.73;;
4424;SDS011;2225;53.568;13.266;2023-07-31T06:19:07;12.13;;;2.90;;
4424;SDS011;2225;53.568;13.266;2023-07-31T06:21:34;11.57;;;2.90;;
4424;SDS011;2225;53.568;13.266;2023-07-31T06:24:04;22.50;;;3.07;;
4424;SDS011;2225;53.568;13.266;2023-07-31T06:26:31;12.50;;;3.10;;
4424;SDS011;2225;53.568;13.266;2023-07-31T06:28:58;11.60;;;3.10;;
4424;SDS011;2225;53.568;13.266;2023-07-31T06:31:25;11.20;;;2.93;;
4424;SDS011;2225;53.568;13.266;2023-07-31T06:33:52;10.13;;;3.10;;
4424;SDS011;2225;53.568;13.266;2023-07-31T06:36:20;11.30;;;2.87;;
4424;SDS011;2225;53.568;13.266;2023-07-31T06:38:47;10.87;;;3.03;;
4424;SDS011;2225;53.568;13.266;2023-07-31T06:41:14;10.30;;;2.33;;
4424;SDS011;2225;53.568;13.266;2023-07-31T06:43:41;11.80;;;3.23;;
4424;SDS011;2225;53.568;13.266;2023-07-31T06:46:08;8.40;;;2.73;;
4424;SDS011;2225;53.568;13.266;2023-07-31T06:48:36;7.57;;;2.37;;
4424;SDS011;2225;53.568;13.266;2023-07-31T06:51:03;8.50;;;2.40;;
4424;SDS011;2225;53.568;13.266;2023-07-31T06:53:30;8.30;;;2.80;;
4424;SDS011;2225;53.568;13.266;2023-07-31T06:55:57;7.90;;;2.53;;
4424;SDS011;2225;53.568;13.266;2023-07-31T06:58:24;9.73;;;2.27;;
4424;SDS011;2225;53.568;13.266;2023-07-31T07:00:51;7.20;;;2.20;;
4424;SDS011;2225;53.568;13.266;2023-07-31T07:03:18;8.57;;;2.27;;
4424;SDS011;2225;53.568;13.266;2023-07-31T07:05:46;17.00;;;2.40;;
4424;SDS011;2225;53.568;13.266;2023-07-31T07:08:13;9.00;;;2.60;;
4424;SDS011;2225;53.568;13.266;2023-07-31T07:10:40;9.27;;;2.90;;
4424;SDS011;2225;53.568;13.266;2023-07-31T07:13:07;8.37;;;2.10;;
4424;SDS011;2225;53.568;13.266;2023-07-31T07:15:34;18.87;;;2.47;;
4424;SDS011;2225;53.568;13.266;2023-07-31T07:18:02;11.70;;;2.33;;
4424;SDS011;2225;53.568;13.266;2023-07-31T07:20:29;9.67;;;2.30;;
4424;SDS011;2225;53.568;13.266;2023-07-31T07:22:56;16.47;;;2.87;;
4424;SDS011;2225;53.568;13.266;2023-07-31T07:25:23;10.43;;;2.57;;
4424;SDS011;2225;53.568;13.266;2023-07-31T07:27:50;9.93;;;2.47;;
4424;SDS011;2225;53.568;13.266;2023-07-31T07:30:17;7.87;;;2.47;;
4424;SDS011;2225;53.568;13.266;2023-07-31T07:32:46;8.27;;;2.43;;
4424;SDS011;2225;53.568;13.266;2023-07-31T07:35:13;8.03;;;2.43;;
4424;SDS011;2225;53.568;13.266;2023-07-31T07:37:40;7.63;;;2.30;;
4424;SDS011;2225;53.568;13.266;2023-07-31T07:40:07;12.70;;;2.40;;
4424;SDS011;2225;53.568;13.266;2023-07-31T07:42:35;6.40;;;2.00;;
4424;SDS011;2225;53.568;13.266;2023-07-31T07:45:02;9.70;;;2.23;;
4424;SDS011;2225;53.568;13.266;2023-07-31T07:47:29;9.77;;;2.47;;
4424;SDS011;2225;53.568;13.266;2023-07-31T07:49:56;7.70;;;1.80;;
4424;SDS011;2225;53.568;13.266;2023-07-31T07:52:23;7.70;;;2.10;;
4424;SDS011;2225;53.568;13.266;2023-07-31T07:54:50;13.63;;;1.97;;
4424;SDS011;2225;53.568;13.266;2023-07-31T07:57:17;9.73;;;3.07;;
4424;SDS011;2225;53.568;13.266;2023-07-31T07:59:44;9.03;;;1.90;;
4424;SDS011;2225;53.568;13.266;2023-07-31T08:02:11;9.83;;;2.23;;
4424;SDS011;2225;53.568;13.266;2023-07-31T08:04:38;6.87;;;1.80;;
4424;SDS011;2225;53.568;13.266;2023-07-31T08:07:05;12.33;;;2.40;;
4424;SDS011;2225;53.568;13.266;2023-07-31T08:09:32;8.27;;;2.10;;
4424;SDS011;2225;53.568;13.266;2023-07-31T08:11:59;8.23;;;2.43;;
4424;SDS011;2225;53.568;13.266;2023-07-31T08:14:29;6.13;;;1.83;;
4424;SDS011;2225;53.568;13.266;2023-07-31T08:16:58;9.20;;;2.20;;
4424;SDS011;2225;53.568;13.266;2023-07-31T08:19:26;6.67;;;2.07;;
4424;SDS011;2225;53.568;13.266;2023-07-31T08:21:53;7.80;;;1.83;;
4424;SDS011;2225;53.568;13.266;2023-07-31T08:24:23;8.70;;;2.63;;
4424;SDS011;2225;53.568;13.266;2023-07-31T08:26:50;7.20;;;2.20;;
4424;SDS011;2225;53.568;13.266;2023-07-31T08:29:17;8.70;;;2.17;;
4424;SDS011;2225;53.568;13.266;2023-07-31T08:31:44;8.40;;;1.93;;
4424;SDS011;2225;53.568;13.266;2023-07-31T08:34:11;6.83;;;1.90;;
4424;SDS011;2225;53.568;13.266;2023-07-31T08:36:38;8.30;;;2.23;;
4424;SDS011;2225;53.568;13.266;2023-07-31T08:39:05;6.47;;;1.90;;
4424;SDS011;2225;53.568;13.266;2023-07-31T08:41:36;7.40;;;2.10;;
4424;SDS011;2225;53.568;13.266;2023-07-31T08:44:07;8.07;;;2.23;;
4424;SDS011;2225;53.568;13.266;2023-07-31T08:46:34;5.60;;;1.70;;
4424;SDS011;2225;53.568;13.266;2023-07-31T08:49:03;7.93;;;2.20;;
4424;SDS011;2225;53.568;13.266;2023-07-31T08:51:33;7.47;;;1.70;;
4424;SDS011;2225;53.568;13.266;2023-07-31T08:54:01;8.17;;;2.47;;
4424;SDS011;2225;53.568;13.266;2023-07-31T08:56:31;6.80;;;2.07;;
4424;SDS011;2225;53.568;13.266;2023-07-31T08:58:59;7.83;;;1.97;;
4424;SDS011;2225;53.568;13.266;2023-07-31T09:01:28;7.13;;;2.40;;
4424;SDS011;2225;53.568;13.266;2023-07-31T09:03:58;6.53;;;2.07;;
4424;SDS011;2225;53.568;13.266;2023-07-31T09:06:27;6.80;;;2.03;;
4424;SDS011;2225;53.568;13.266;2023-07-31T09:08:56;8.70;;;1.97;;
4424;SDS011;2225;53.568;13.266;2023-07-31T09:11:23;8.57;;;2.03;;
4424;SDS011;2225;53.568;13.266;2023-07-31T09:13:51;8.37;;;2.03;;
4424;SDS011;2225;53.568;13.266;2023-07-31T09:16:26;7.97;;;2.17;;
4424;SDS011;2225;53.568;13.266;2023-07-31T09:18:56;7.27;;;2.67;;
4424;SDS011;2225;53.568;13.266;2023-07-31T09:21:24;6.70;;;2.20;;
4424;SDS011;2225;53.568;13.266;2023-07-31T09:23:54;6.73;;;2.30;;
4424;SDS011;2225;53.568;13.266;2023-07-31T09:26:34;10.53;;;2.67;;
4424;SDS011;2225;53.568;13.266;2023-07-31T09:29:04;6.23;;;2.00;;
4424;SDS011;2225;53.568;13.266;2023-07-31T09:31:40;7.30;;;2.30;;
4424;SDS011;2225;53.568;13.266;2023-07-31T09:34:09;6.17;;;1.50;;
4424;SDS011;2225;53.568;13.266;2023-07-31T09:39:16;8.80;;;2.10;;
4424;SDS011;2225;53.568;13.266;2023-07-31T09:41:46;7.97;;;2.13;;
4424;SDS011;2225;53.568;13.266;2023-07-31T09:44:20;6.53;;;2.00;;
4424;SDS011;2225;53.568;13.266;2023-07-31T09:46:47;8.57;;;1.80;;
4424;SDS011;2225;53.568;13.266;2023-07-31T09:49:14;6.63;;;2.00;;
4424;SDS011;2225;53.568;13.266;2023-07-31T09:51:42;7.50;;;2.03;;
4424;SDS011;2225;53.568;13.266;2023-07-31T09:54:13;8.73;;;2.20;;
4424;SDS011;2225;53.568;13.266;2023-07-31T09:56:45;10.10;;;2.20;;
4424;SDS011;2225;53.568;13.266;2023-07-31T09:59:15;6.37;;;1.83;;
4424;SDS011;2225;53.568;13.266;2023-07-31T10:01:49;9.63;;;2.30;;
4424;SDS011;2225;53.568;13.266;2023-07-31T10:04:17;7.07;;;2.40;;
4424;SDS011;2225;53.568;13.266;2023-07-31T10:06:49;5.83;;;1.97;;
4424;SDS011;2225;53.568;13.266;2023-07-31T10:09:17;6.50;;;1.63;;
4424;SDS011;2225;53.568;13.266;2023-07-31T10:11:51;6.20;;;1.90;;
4424;SDS011;2225;53.568;13.266;2023-07-31T10:14:22;6.80;;;2.27;;
4424;SDS011;2225;53.568;13.266;2023-07-31T10:16:50;9.63;;;2.00;;
4424;SDS011;2225;53.568;13.266;2023-07-31T10:19:19;7.80;;;2.37;;
4424;SDS011;2225;53.568;13.266;2023-07-31T10:21:48;6.23;;;2.43;;
4424;SDS011;2225;53.568;13.266;2023-07-31T10:24:16;8.47;;;2.20;;
4424;SDS011;2225;53.568;13.266;2023-07-31T10:26:43;7.03;;;2.07;;
4424;SDS011;2225;53.568;13.266;2023-07-31T10:29:13;8.77;;;2.60;;
4424;SDS011;2225;53.568;13.266;2023-07-31T10:31:42;7.67;;;2.47;;
4424;SDS011;2225;53.568;13.266;2023-07-31T10:34:09;6.17;;;2.23;;
4424;SDS011;2225;53.568;13.266;2023-07-31T10:36:36;6.53;;;1.97;;
4424;SDS011;2225;53.568;13.266;2023-07-31T10:39:04;5.73;;;1.77;;
4424;SDS011;2225;53.568;13.266;2023-07-31T10:42:11;6.10;;;2.00;;
4424;SDS011;2225;53.568;13.266;2023-07-31T10:44:43;5.80;;;2.00;;
4424;SDS011;2225;53.568;13.266;2023-07-31T10:47:14;7.10;;;2.07;;
4424;SDS011;2225;53.568;13.266;2023-07-31T10:49:44;7.10;;;2.13;;
4424;SDS011;2225;53.568;13.266;2023-07-31T10:52:12;6.03;;;2.10;;
4424;SDS011;2225;53.568;13.266;2023-07-31T10:54:40;6.67;;;1.93;;
4424;SDS011;2225;53.568;13.266;2023-07-31T10:57:18;7.87;;;2.23;;
4424;SDS011;2225;53.568;13.266;2023-07-31T10:59:49;6.60;;;2.43;;
4424;SDS011;2225;53.568;13.266;2023-07-31T11:02:25;6.10;;;2.00;;
4424;SDS011;2225;53.568;13.266;2023-07-31T11:05:07;6.93;;;2.10;;
4424;SDS011;2225;53.568;13.266;2023-07-31T11:07:48;8.23;;;2.13;;
4424;SDS011;2225;53.568;13.266;2023-07-31T11:10:16;7.03;;;1.90;;
4424;SDS011;2225;53.568;13.266;2023-07-31T11:12:47;5.87;;;1.57;;
4424;SDS011;2225;53.568;13.266;2023-07-31T11:15:14;7.27;;;1.60;;
4424;SDS011;2225;53.568;13.266;2023-07-31T11:17:41;5.37;;;1.53;;
4424;SDS011;2225;53.568;13.266;2023-07-31T11:20:08;5.30;;;1.40;;
4424;SDS011;2225;53.568;13.266;2023-07-31T11:22:36;6.60;;;1.77;;
4424;SDS011;2225;53.568;13.266;2023-07-31T11:25:03;5.20;;;1.50;;
4424;SDS011;2225;53.568;13.266;2023-07-31T11:27:30;6.00;;;1.63;;
4424;SDS011;2225;53.568;13.266;2023-07-31T11:30:01;5.40;;;1.60;;
4424;SDS011;2225;53.568;13.266;2023-07-31T11:32:28;6.00;;;1.97;;
4424;SDS011;2225;53.568;13.266;2023-07-31T11:34:55;8.43;;;2.00;;
4424;SDS011;2225;53.568;13.266;2023-07-31T11:37:38;5.17;;;1.40;;
4424;SDS011;2225;53.568;13.266;2023-07-31T11:40:09;5.33;;;1.50;;
4424;SDS011;2225;53.568;13.266;2023-07-31T11:42:37;5.83;;;1.43;;
4424;SDS011;2225;53.568;13.266;2023-07-31T11:45:04;5.47;;;1.60;;
4424;SDS011;2225;53.568;13.266;2023-07-31T11:47:33;7.00;;;1.73;;
4424;SDS011;2225;53.568;13.266;2023-07-31T11:50:02;5.50;;;1.43;;
4424;SDS011;2225;53.568;13.266;2023-07-31T11:52:34;6.03;;;1.90;;
4424;SDS011;2225;53.568;13.266;2023-07-31T11:55:08;5.30;;;1.20;;
4424;SDS011;2225;53.568;13.266;2023-07-31T11:57:39;4.63;;;0.90;;
4424;SDS011;2225;53.568;13.266;2023-07-31T12:00:08;4.50;;;0.90;;
4424;SDS011;2225;53.568;13.266;2023-07-31T12:02:37;5.97;;;1.23;;
4424;SDS011;2225;53.568;13.266;2023-07-31T12:05:14;6.30;;;1.17;;
4424;SDS011;2225;53.568;13.266;2023-07-31T12:07:45;6.20;;;1.10;;
4424;SDS011;2225;53.568;13.266;2023-07-31T12:10:25;4.60;;;0.97;;
4424;SDS011;2225;53.568;13.266;2023-07-31T12:13:04;6.00;;;1.00;;
4424;SDS011;2225;53.568;13.266;2023-07-31T12:15:40;7.97;;;1.00;;
4424;SDS011;2225;53.568;13.266;2023-07-31T12:18:10;5.40;;;1.10;;
4424;SDS011;2225;53.568;13.266;2023-07-31T12:20:45;7.10;;;1.13;;
4424;SDS011;2225;53.568;13.266;2023-07-31T12:23:18;5.67;;;1.30;;
4424;SDS011;2225;53.568;13.266;2023-07-31T12:26:10;5.30;;;1.10;;
4424;SDS011;2225;53.568;13.266;2023-07-31T12:28:46;5.47;;;1.00;;
4424;SDS011;2225;53.568;13.266;2023-07-31T12:31:15;7.03;;;1.30;;
4424;SDS011;2225;53.568;13.266;2023-07-31T12:33:44;5.43;;;1.40;;
4424;SDS011;2225;53.568;13.266;2023-07-31T12:36:14;8.60;;;2.00;;
4424;SDS011;2225;53.568;13.266;2023-07-31T12:38:44;6.30;;;2.17;;
4424;SDS011;2225;53.568;13.266;2023-07-31T12:41:11;6.50;;;2.10;;
4424;SDS011;2225;53.568;13.266;2023-07-31T12:43:40;8.37;;;2.47;;
4424;SDS011;2225;53.568;13.266;2023-07-31T12:46:09;6.80;;;2.63;;
4424;SDS011;2225;53.568;13.266;2023-07-31T12:48:39;7.60;;;2.80;;
4424;SDS011;2225;53.568;13.266;2023-07-31T12:51:07;7.80;;;2.93;;
4424;SDS011;2225;53.568;13.266;2023-07-31T12:53:34;7.33;;;2.90;;
4424;SDS011;2225;53.568;13.266;2023-07-31T12:56:02;8.47;;;3.43;;
4424;SDS011;2225;53.568;13.266;2023-07-31T12:58:29;9.50;;;3.83;;
4424;SDS011;2225;53.568;13.266;2023-07-31T13:00:56;8.70;;;3.30;;
4424;SDS011;2225;53.568;13.266;2023-07-31T13:03:23;10.17;;;4.10;;
4424;SDS011;2225;53.568;13.266;2023-07-31T13:05:50;9.40;;;3.57;;
4424;SDS011;2225;53.568;13.266;2023-07-31T13:08:18;10.60;;;3.90;;
4424;SDS011;2225;53.568;13.266;2023-07-31T13:10:45;9.30;;;3.90;;
4424;SDS011;2225;53.568;13.266;2023-07-31T13:13:12;9.37;;;4.20;;
4424;SDS011;2225;53.568;13.266;2023-07-31T13:15:39;8.10;;;3.77;;
4424;SDS011;2225;53.568;13.266;2023-07-31T13:18:06;9.70;;;4.03;;
4424;SDS011;2225;53.568;13.266;2023-07-31T13:20:33;11.80;;;4.30;;
4424;SDS011;2225;53.568;13.266;2023-07-31T13:23:00;11.50;;;4.00;;
4424;SDS011;2225;53.568;13.266;2023-07-31T13:25:27;11.53;;;5.07;;
4424;SDS011;2225;53.568;13.266;2023-07-31T13:27:54;11.87;;;4.70;;
4424;SDS011;2225;53.568;13.266;2023-07-31T13:30:23;12.00;;;4.30;;
4424;SDS011;2225;53.568;13.266;2023-07-31T13:32:50;14.17;;;4.93;;
4424;SDS011;2225;53.568;13.266;2023-07-31T13:35:17;8.50;;;4.67;;
4424;SDS011;2225;53.568;13.266;2023-07-31T13:37:44;12.07;;;5.30;;
4424;SDS011;2225;53.568;13.266;2023-07-31T13:40:11;10.07;;;5.03;;
4424;SDS011;2225;53.568;13.266;2023-07-31T13:42:38;11.37;;;4.40;;
4424;SDS011;2225;53.568;13.266;2023-07-31T13:45:05;10.00;;;4.50;;
4424;SDS011;2225;53.568;13.266;2023-07-31T13:47:33;13.10;;;5.47;;
4424;SDS011;2225;53.568;13.266;2023-07-31T13:50:01;12.43;;;5.27;;
4424;SDS011;2225;53.568;13.266;2023-07-31T13:52:28;13.00;;;5.23;;
4424;SDS011;2225;53.568;13.266;2023-07-31T13:54:55;12.70;;;5.57;;
4424;SDS011;2225;53.568;13.266;2023-07-31T13:57:22;10.10;;;4.63;;
4424;SDS011;2225;53.568;13.266;2023-07-31T13:59:49;12.77;;;5.90;;
4424;SDS011;2225;53.568;13.266;2023-07-31T14:02:16;15.43;;;5.80;;
4424;SDS011;2225;53.568;13.266;2023-07-31T14:04:43;15.00;;;6.37;;
4424;SDS011;2225;53.568;13.266;2023-07-31T14:07:10;11.23;;;4.63;;
4424;SDS011;2225;53.568;13.266;2023-07-31T14:09:37;10.73;;;4.87;;
4424;SDS011;2225;53.568;13.266;2023-07-31T14:12:04;12.07;;;4.77;;
4424;SDS011;2225;53.568;13.266;2023-07-31T14:14:32;11.33;;;4.80;;
4424;SDS011;2225;53.568;13.266;2023-07-31T14:17:00;11.90;;;5.20;;
4424;SDS011;2225;53.568;13.266;2023-07-31T14:19:28;9.93;;;4.57;;
4424;SDS011;2225;53.568;13.266;2023-07-31T14:21:57;10.90;;;5.67;;
4424;SDS011;2225;53.568;13.266;2023-07-31T14:24:37;16.03;;;5.37;;
4424;SDS011;2225;53.568;13.266;2023-07-31T14:27:04;12.83;;;4.87;;
4424;SDS011;2225;53.568;13.266;2023-07-31T14:29:31;11.00;;;4.60;;
4424;SDS011;2225;53.568;13.266;2023-07-31T14:31:58;10.40;;;4.13;;
4424;SDS011;2225;53.568;13.266;2023-07-31T14:34:26;9.90;;;4.53;;
4424;SDS011;2225;53.568;13.266;2023-07-31T14:36:53;8.60;;;3.90;;
4424;SDS011;2225;53.568;13.266;2023-07-31T14:39:20;10.13;;;4.10;;
4424;SDS011;2225;53.568;13.266;2023-07-31T14:41:47;8.70;;;3.63;;
4424;SDS011;2225;53.568;13.266;2023-07-31T14:44:14;11.60;;;3.43;;
4424;SDS011;2225;53.568;13.266;2023-07-31T14:46:41;10.73;;;3.23;;
4424;SDS011;2225;53.568;13.266;2023-07-31T14:49:09;12.67;;;3.43;;
4424;SDS011;2225;53.568;13.266;2023-07-31T14:51:36;8.20;;;3.33;;
4424;SDS011;2225;53.568;13.266;2023-07-31T14:54:03;8.00;;;3.30;;
4424;SDS011;2225;53.568;13.266;2023-07-31T14:56:30;7.80;;;3.33;;
4424;SDS011;2225;53.568;13.266;2023-07-31T14:58:57;8.23;;;3.27;;
4424;SDS011;2225;53.568;13.266;2023-07-31T15:01:24;8.80;;;3.70;;
4424;SDS011;2225;53.568;13.266;2023-07-31T15:03:51;9.43;;;4.00;;
4424;SDS011;2225;53.568;13.266;2023-07-31T15:06:18;16.17;;;4.63;;
4424;SDS011;2225;53.568;13.266;2023-07-31T15:08:45;8.13;;;3.63;;
4424;SDS011;2225;53.568;13.266;2023-07-31T15:11:11;8.87;;;4.03;;
4424;SDS011;2225;53.568;13.266;2023-07-31T15:13:39;13.33;;;4.30;;